Time;durP1;ratioP1;P1;durP2;ratioP2;P2;SDS_P1;SDS_P2;PMS_P1;PMS_P2;Temp;Humidity;BMP_temperature;BMP_pressure;BME280_temperature;BME280_humidity;BME280_pressure;Samples;Min_cycle;Max_cycle;Signal;HPM_P1;HPM_P2
2023/08/21 00:01:57;;;;;;;;;;;18.60;77.70;;;;;;5088096;28;20394;-80
2023/08/21 00:04:22;;;;;;;;;;;18.70;77.70;;;;;;5088173;28;19922;-79
2023/08/21 00:06:48;;;;;;;;;;;18.70;77.60;;;;;;5088136;28;19920;-81
2023/08/21 00:09:13;;;;;;;;;;;18.70;77.50;;;;;;5087852;28;19955;-80
2023/08/21 00:11:39;;;;;;;;;;;18.80;77.50;;;;;;5053233;28;19916;-81
2023/08/21 00:14:05;;;;;;;;;;;18.70;77.40;;;;;;5069800;28;19935;-80
2023/08/21 00:16:30;;;;;;;;;;;18.60;77.40;;;;;;5070001;28;19924;-80
2023/08/21 00:18:56;;;;;;;;;;;18.50;77.40;;;;;;5086371;28;20011;-80
2023/08/21 00:21:21;;;;;;;;;;;18.50;77.50;;;;;;5088371;28;20404;-80
2023/08/21 00:23:47;;;;;;;;;;;18.40;77.50;;;;;;5070041;28;19919;-80
2023/08/21 00:26:13;;;;;;;;;;;18.30;77.50;;;;;;5087976;28;20007;-80
2023/08/21 00:28:38;;;;;;;;;;;18.30;77.60;;;;;;5088013;28;20288;-80
2023/08/21 00:31:04;;;;;;;;;;;18.20;77.60;;;;;;5088049;28;19912;-79
2023/08/21 00:33:30;;;;;;;;;;;18.10;77.60;;;;;;5087862;28;19912;-79
2023/08/21 00:35:56;;;;;;;;;;;18.10;77.70;;;;;;5087979;28;20398;-79
2023/08/21 00:38:22;;;;;;;;;;;18.10;77.70;;;;;;5088184;28;19959;-80
2023/08/21 00:40:48;;;;;;;;;;;18.10;77.80;;;;;;5074049;28;19955;-79
2023/08/21 00:43:14;;;;;;;;;;;18.00;77.70;;;;;;5073621;28;19958;-80
2023/08/21 00:45:41;;;;;;;;;;;18.00;77.70;;;;;;5091798;28;20384;-79
2023/08/21 00:48:07;;;;;;;;;;;18.00;77.70;;;;;;5091675;28;19923;-80
2023/08/21 00:50:32;;;;;;;;;;;17.90;77.70;;;;;;5091672;28;19919;-80
2023/08/21 00:52:58;;;;;;;;;;;17.90;77.70;;;;;;5091606;28;19916;-80
2023/08/21 00:55:24;;;;;;;;;;;17.90;77.70;;;;;;5073175;28;19914;-80
2023/08/21 00:57:49;;;;;;;;;;;17.90;77.70;;;;;;5091546;28;20386;-79
2023/08/21 01:00:15;;;;;;;;;;;17.90;77.70;;;;;;5091793;28;19915;-79
2023/08/21 01:02:40;;;;;;;;;;;17.90;77.70;;;;;;5073029;28;20199;-79
2023/08/21 01:05:07;;;;;;;;;;;17.90;77.70;;;;;;5091550;28;19927;-79
2023/08/21 01:07:36;;;;;;;;;;;17.90;77.70;;;;;;5073416;28;19912;-79
2023/08/21 01:10:31;;;;;;;;;;;17.90;77.70;;;;;;5097976;28;19908;-79
2023/08/21 01:13:15;;;;;;;;;;;17.90;77.80;;;;;;5077814;28;20292;-80
2023/08/21 01:15:42;;;;;;;;;;;17.80;77.70;;;;;;5091285;28;19908;-79
2023/08/21 01:18:08;;;;;;;;;;;17.80;77.80;;;;;;5072775;28;19908;-80
2023/08/21 01:20:34;;;;;;;;;;;17.80;77.80;;;;;;5091118;28;19990;-79
2023/08/21 01:23:03;;;;;;;;;;;17.80;77.80;;;;;;5091256;28;19940;-80
2023/08/21 01:25:29;;;;;;;;;;;17.80;77.80;;;;;;5091315;28;19911;-78
2023/08/21 01:27:54;;;;;;;;;;;17.80;77.90;;;;;;5090972;28;20274;-80
2023/08/21 01:30:20;;;;;;;;;;;17.80;77.90;;;;;;5089914;28;20018;-80
2023/08/21 01:32:58;;;;;;;;;;;17.80;77.90;;;;;;5090911;28;19927;-79
2023/08/21 01:35:24;;;;;;;;;;;17.80;77.90;;;;;;5090960;28;19958;-81
2023/08/21 01:37:50;;;;;;;;;;;17.80;77.90;;;;;;5072955;28;20340;-82
2023/08/21 01:40:22;;;;;;;;;;;17.80;77.90;;;;;;5072725;28;20426;-82
2023/08/21 01:42:48;;;;;;;;;;;17.70;77.90;;;;;;5072732;28;19916;-81
2023/08/21 01:45:13;;;;;;;;;;;17.70;77.90;;;;;;5090814;28;19914;-81
2023/08/21 01:47:39;;;;;;;;;;;17.70;77.90;;;;;;5072454;28;19974;-82
2023/08/21 01:50:05;;;;;;;;;;;17.70;77.90;;;;;;5071635;28;19912;-82
2023/08/21 01:52:30;;;;;;;;;;;17.70;77.90;;;;;;5072489;28;20396;-82
2023/08/21 01:54:56;;;;;;;;;;;17.70;77.90;;;;;;5072349;28;20261;-82
2023/08/21 01:57:22;;;;;;;;;;;17.70;77.90;;;;;;5072499;28;19955;-82
2023/08/21 01:59:48;;;;;;;;;;;17.70;77.90;;;;;;5090266;28;19912;-82
2023/08/21 02:02:14;;;;;;;;;;;17.70;77.90;;;;;;5088921;28;19927;-81
2023/08/21 02:04:40;;;;;;;;;;;17.70;77.90;;;;;;5090350;28;19913;-82
2023/08/21 02:07:06;;;;;;;;;;;17.70;77.90;;;;;;5090421;28;20022;-82
2023/08/21 02:09:31;;;;;;;;;;;17.60;77.90;;;;;;5090169;28;19927;-82
2023/08/21 02:11:57;;;;;;;;;;;17.70;78.00;;;;;;5090305;28;19916;-81
2023/08/21 02:14:22;;;;;;;;;;;17.70;78.00;;;;;;5090138;28;19955;-81
2023/08/21 02:16:48;;;;;;;;;;;17.60;78.00;;;;;;5072226;28;20306;-81
2023/08/21 02:19:13;;;;;;;;;;;17.60;78.00;;;;;;5089812;28;19924;-81
2023/08/21 02:21:39;;;;;;;;;;;17.60;78.00;;;;;;5088983;28;19969;-81
2023/08/21 02:24:04;;;;;;;;;;;17.60;78.00;;;;;;5071834;28;19915;-82
2023/08/21 02:26:30;;;;;;;;;;;17.60;78.00;;;;;;5071674;28;19943;-81
2023/08/21 02:28:57;;;;;;;;;;;17.60;78.00;;;;;;5088391;28;20292;-81
2023/08/21 02:31:23;;;;;;;;;;;17.60;78.00;;;;;;5089799;28;19916;-82
2023/08/21 02:33:49;;;;;;;;;;;17.60;78.00;;;;;;5089906;28;19958;-81
2023/08/21 02:36:15;;;;;;;;;;;17.60;78.00;;;;;;5089898;28;19925;-82
2023/08/21 02:38:41;;;;;;;;;;;17.70;78.10;;;;;;5089595;28;20492;-82
2023/08/21 02:41:07;;;;;;;;;;;17.60;78.10;;;;;;5071592;28;19963;-82
2023/08/21 02:43:33;;;;;;;;;;;17.70;78.10;;;;;;5090141;28;19993;-81
2023/08/21 02:45:59;;;;;;;;;;;17.70;78.10;;;;;;5071337;28;20364;-82
2023/08/21 02:48:24;;;;;;;;;;;17.70;78.10;;;;;;5090757;28;19938;-82
2023/08/21 02:50:50;;;;;;;;;;;17.70;78.10;;;;;;5089677;28;20398;-82
2023/08/21 02:53:15;;;;;;;;;;;17.70;78.10;;;;;;5089776;28;19919;-82
2023/08/21 02:55:41;;;;;;;;;;;17.70;78.10;;;;;;5071457;28;19912;-82
2023/08/21 02:58:07;;;;;;;;;;;17.60;78.00;;;;;;5054674;28;19912;-82
2023/08/21 03:00:32;;;;;;;;;;;17.60;78.00;;;;;;5071285;28;19908;-82
2023/08/21 03:02:58;;;;;;;;;;;17.60;78.10;;;;;;5054300;28;19966;-81
2023/08/21 03:05:23;;;;;;;;;;;17.60;78.10;;;;;;5071079;28;19963;-81
2023/08/21 03:07:49;;;;;;;;;;;17.60;78.10;;;;;;5089095;28;19918;-82
2023/08/21 03:10:14;;;;;;;;;;;17.70;78.20;;;;;;5089261;28;20261;-82
2023/08/21 03:12:40;;;;;;;;;;;17.70;78.20;;;;;;5089280;28;19912;-81
2023/08/21 03:15:06;;;;;;;;;;;17.60;78.10;;;;;;5089205;28;19912;-82
2023/08/21 03:17:32;;;;;;;;;;;17.70;78.20;;;;;;5071039;28;19912;-82
2023/08/21 03:19:58;;;;;;;;;;;17.60;78.20;;;;;;5070482;28;20331;-81
2023/08/21 03:22:23;;;;;;;;;;;17.70;78.20;;;;;;5088826;28;20012;-82
2023/08/21 03:24:49;;;;;;;;;;;17.70;78.20;;;;;;5087514;28;19939;-82
2023/08/21 03:27:15;;;;;;;;;;;17.70;78.20;;;;;;5070816;28;19923;-82
2023/08/21 03:29:40;;;;;;;;;;;17.70;78.20;;;;;;5070558;28;19918;-82
2023/08/21 03:32:06;;;;;;;;;;;17.70;78.70;;;;;;5053950;28;20313;-82
2023/08/21 03:34:31;;;;;;;;;;;17.70;78.30;;;;;;5070557;28;20398;-82
2023/08/21 03:36:57;;;;;;;;;;;17.70;78.20;;;;;;5070542;28;20003;-82
2023/08/21 03:39:23;;;;;;;;;;;17.70;78.20;;;;;;5088538;28;19929;-82
2023/08/21 03:41:48;;;;;;;;;;;17.70;78.30;;;;;;5053561;28;19916;-83
2023/08/21 03:44:14;;;;;;;;;;;17.60;78.20;;;;;;5088750;28;20036;-81
2023/08/21 03:46:39;;;;;;;;;;;17.70;78.20;;;;;;5088809;28;19919;-82
2023/08/21 03:49:05;;;;;;;;;;;17.70;78.30;;;;;;5088610;28;20287;-82
2023/08/21 03:51:30;;;;;;;;;;;17.70;78.40;;;;;;5070655;28;19912;-82
2023/08/21 03:53:56;;;;;;;;;;;17.70;78.40;;;;;;5070168;28;19947;-82
2023/08/21 03:56:23;;;;;;;;;;;17.80;78.40;;;;;;5088327;28;19947;-82
2023/08/21 03:58:49;;;;;;;;;;;17.90;78.30;;;;;;5070329;28;20368;-82
2023/08/21 04:01:14;;;;;;;;;;;17.90;78.20;;;;;;5088369;28;19916;-82
2023/08/21 04:03:40;;;;;;;;;;;17.90;78.20;;;;;;5070119;28;19912;-82
2023/08/21 04:06:05;;;;;;;;;;;17.80;78.20;;;;;;5069955;28;19923;-82
2023/08/21 04:08:31;;;;;;;;;;;17.80;78.20;;;;;;5070118;28;19912;-82
2023/08/21 04:10:59;;;;;;;;;;;17.80;78.30;;;;;;5070297;28;19961;-82
2023/08/21 04:13:25;;;;;;;;;;;17.80;78.30;;;;;;5087567;28;19958;-82
2023/08/21 04:15:53;;;;;;;;;;;17.80;78.40;;;;;;5069997;28;20380;-81
2023/08/21 04:18:18;;;;;;;;;;;17.90;78.50;;;;;;5087994;28;19940;-81
2023/08/21 04:20:44;;;;;;;;;;;18.00;78.60;;;;;;5053150;28;20370;-82
2023/08/21 04:23:10;;;;;;;;;;;18.00;78.40;;;;;;5088409;28;19927;-82
2023/08/21 04:25:35;;;;;;;;;;;18.10;78.40;;;;;;5088673;28;19919;-81
2023/08/21 04:28:01;;;;;;;;;;;18.20;78.40;;;;;;5090321;28;19919;-82
2023/08/21 04:30:26;;;;;;;;;;;18.20;78.20;;;;;;5088076;28;19931;-82
2023/08/21 04:32:52;;;;;;;;;;;18.20;78.10;;;;;;5070048;28;19912;-82
2023/08/21 04:35:17;;;;;;;;;;;18.20;78.20;;;;;;5053332;28;19951;-82
2023/08/21 04:37:47;;;;;;;;;;;18.20;78.30;;;;;;5087912;28;20375;-82
2023/08/21 04:40:13;;;;;;;;;;;18.30;78.50;;;;;;5087860;28;19955;-82
2023/08/21 04:42:38;;;;;;;;;;;18.30;78.50;;;;;;5052937;28;19971;-82
2023/08/21 04:45:05;;;;;;;;;;;18.40;78.50;;;;;;5088042;28;19912;-82
2023/08/21 04:47:31;;;;;;;;;;;18.40;78.40;;;;;;5053084;28;19923;-82
2023/08/21 04:49:57;;;;;;;;;;;18.50;78.40;;;;;;5087758;28;19924;-83
2023/08/21 04:52:23;;;;;;;;;;;18.50;78.40;;;;;;5069590;28;20306;-82
2023/08/21 04:54:49;;;;;;;;;;;18.50;78.30;;;;;;5087895;28;20360;-82
2023/08/21 04:57:15;;;;;;;;;;;18.50;78.30;;;;;;5087844;28;20382;-82
2023/08/21 04:59:40;;;;;;;;;;;18.50;78.30;;;;;;5087691;28;19908;-83
2023/08/21 05:02:06;;;;;;;;;;;18.60;78.40;;;;;;5087580;28;19935;-82
2023/08/21 05:04:32;;;;;;;;;;;18.60;78.40;;;;;;5069720;28;19934;-81
2023/08/21 05:06:58;;;;;;;;;;;18.60;78.40;;;;;;5069635;28;20002;-81
2023/08/21 05:09:23;;;;;;;;;;;18.60;78.40;;;;;;5087354;28;19913;-82
2023/08/21 05:11:49;;;;;;;;;;;18.70;78.50;;;;;;5087566;28;19918;-82
2023/08/21 05:14:14;;;;;;;;;;;18.70;78.40;;;;;;5086342;28;20515;-82
2023/08/21 05:16:40;;;;;;;;;;;18.70;78.40;;;;;;5087390;28;19908;-81
2023/08/21 05:19:05;;;;;;;;;;;18.70;78.40;;;;;;5052386;28;19916;-80
2023/08/21 05:21:31;;;;;;;;;;;18.70;78.40;;;;;;5069500;28;19915;-82
2023/08/21 05:23:56;;;;;;;;;;;18.70;78.30;;;;;;5087560;28;20399;-82
2023/08/21 05:26:22;;;;;;;;;;;18.60;78.20;;;;;;5071446;28;19912;-83
2023/08/21 05:28:47;;;;;;;;;;;18.60;78.30;;;;;;5091160;28;20394;-82
2023/08/21 05:31:13;;;;;;;;;;;18.50;78.30;;;;;;5090876;28;20366;-82
2023/08/21 05:33:39;;;;;;;;;;;18.40;78.30;;;;;;5091180;28;19940;-82
2023/08/21 05:36:05;;;;;;;;;;;18.40;78.40;;;;;;5091001;28;19908;-82
2023/08/21 05:38:30;;;;;;;;;;;18.30;78.40;;;;;;5072716;28;19961;-82
2023/08/21 05:40:56;;;;;;;;;;;18.30;78.50;;;;;;5090966;28;19916;-82
2023/08/21 05:43:21;;;;;;;;;;;18.30;78.50;;;;;;5090955;28;19965;-82
2023/08/21 05:45:47;;;;;;;;;;;18.30;78.60;;;;;;5090389;28;20364;-83
2023/08/21 05:48:13;;;;;;;;;;;18.30;78.70;;;;;;5090642;28;19912;-82
2023/08/21 05:50:39;;;;;;;;;;;18.30;78.60;;;;;;5089310;28;19995;-82
2023/08/21 05:53:04;;;;;;;;;;;18.40;78.60;;;;;;5072516;28;19912;-82
2023/08/21 05:55:30;;;;;;;;;;;18.40;78.50;;;;;;5090243;28;19912;-81
2023/08/21 05:57:55;;;;;;;;;;;18.30;78.50;;;;;;5089055;28;20265;-82
2023/08/21 06:00:21;;;;;;;;;;;18.40;78.60;;;;;;5071941;28;19935;-80
2023/08/21 06:02:47;;;;;;;;;;;18.40;78.60;;;;;;5072028;28;19927;-82
2023/08/21 06:05:12;;;;;;;;;;;18.50;78.70;;;;;;5093170;28;20010;-83
2023/08/21 06:07:40;;;;;;;;;;;18.50;78.70;;;;;;5090487;28;19966;-83
2023/08/21 06:10:06;;;;;;;;;;;18.60;78.80;;;;;;5089979;28;19975;-82
2023/08/21 06:12:31;;;;;;;;;;;18.80;78.80;;;;;;5090417;28;19908;-82
2023/08/21 06:14:57;;;;;;;;;;;18.90;78.70;;;;;;5090093;28;20376;-81
2023/08/21 06:17:23;;;;;;;;;;;19.00;78.70;;;;;;5089924;28;19912;-80
2023/08/21 06:19:48;;;;;;;;;;;19.10;78.60;;;;;;5071664;28;19930;-82
2023/08/21 06:22:15;;;;;;;;;;;19.10;78.50;;;;;;5090108;28;19969;-81
2023/08/21 06:24:41;;;;;;;;;;;19.20;78.40;;;;;;5089932;28;20015;-83
2023/08/21 06:27:07;;;;;;;;;;;19.30;78.40;;;;;;5071633;28;20362;-82
2023/08/21 06:29:33;;;;;;;;;;;19.30;78.40;;;;;;5090057;28;19999;-82
2023/08/21 06:31:58;;;;;;;;;;;19.30;78.90;;;;;;5090318;28;19947;-83
2023/08/21 06:34:24;;;;;;;;;;;19.30;78.40;;;;;;5089138;28;19995;-79
2023/08/21 06:36:49;;;;;;;;;;;19.30;78.40;;;;;;5071266;28;19958;-82
2023/08/21 06:39:15;;;;;;;;;;;19.40;78.50;;;;;;5087929;28;19922;-83
2023/08/21 06:41:40;;;;;;;;;;;19.50;78.50;;;;;;5089427;28;19922;-82
2023/08/21 06:44:06;;;;;;;;;;;19.60;78.40;;;;;;5089518;28;20035;-83
2023/08/21 06:46:32;;;;;;;;;;;19.60;78.30;;;;;;5089519;28;20364;-82
2023/08/21 06:48:57;;;;;;;;;;;19.60;78.30;;;;;;5054307;28;19912;-83
2023/08/21 06:51:23;;;;;;;;;;;19.60;78.30;;;;;;5071115;28;19916;-82
2023/08/21 06:53:48;;;;;;;;;;;19.70;78.40;;;;;;5071268;28;19957;-82
2023/08/21 06:56:14;;;;;;;;;;;19.80;78.40;;;;;;5071130;28;19955;-82
2023/08/21 06:58:40;;;;;;;;;;;19.90;78.40;;;;;;5087593;28;19912;-82
2023/08/21 07:01:06;;;;;;;;;;;20.10;78.30;;;;;;5070781;28;19923;-82
2023/08/21 07:03:31;;;;;;;;;;;20.30;78.20;;;;;;5089304;28;19958;-82
2023/08/21 07:05:57;;;;;;;;;;;20.40;78.10;;;;;;5087559;28;20312;-80
2023/08/21 07:08:23;;;;;;;;;;;20.40;78.10;;;;;;5088746;28;19920;-81
2023/08/21 07:10:49;;;;;;;;;;;20.50;78.20;;;;;;5089594;28;19909;-82
2023/08/21 07:13:14;;;;;;;;;;;20.50;78.20;;;;;;5089665;28;20318;-83
2023/08/21 07:15:40;;;;;;;;;;;20.70;78.30;;;;;;5089001;28;20391;-83
2023/08/21 07:18:05;;;;;;;;;;;20.80;78.30;;;;;;5088705;28;20019;-81
2023/08/21 07:20:31;;;;;;;;;;;20.90;78.20;;;;;;5053588;28;19958;-81
2023/08/21 07:22:57;;;;;;;;;;;21.10;78.30;;;;;;5088986;28;19922;-81
2023/08/21 07:25:24;;;;;;;;;;;21.20;78.30;;;;;;5088919;28;20183;-80
2023/08/21 07:27:50;;;;;;;;;;;21.40;78.20;;;;;;5070713;28;19913;-83
2023/08/21 07:30:17;;;;;;;;;;;21.60;78.30;;;;;;5088422;28;19920;-83
2023/08/21 07:32:43;;;;;;;;;;;21.90;78.20;;;;;;5053782;28;19969;-82
2023/08/21 07:35:09;;;;;;;;;;;22.20;78.20;;;;;;5070037;28;19912;-79
2023/08/21 07:37:34;;;;;;;;;;;22.40;78.10;;;;;;5088221;28;19924;-83
2023/08/21 07:40:00;;;;;;;;;;;22.90;78.40;;;;;;5088525;28;19912;-79
2023/08/21 07:42:25;;;;;;;;;;;23.50;77.90;;;;;;5089785;28;19917;-82
2023/08/21 07:44:51;;;;;;;;;;;23.80;77.10;;;;;;5093510;28;19916;-82
2023/08/21 07:47:16;;;;;;;;;;;24.00;77.60;;;;;;5089024;28;20380;-83
2023/08/21 07:49:42;;;;;;;;;;;24.80;77.80;;;;;;5087568;28;19913;-82
2023/08/21 07:52:07;;;;;;;;;;;25.70;77.40;;;;;;5070192;28;19912;-82
2023/08/21 07:54:33;;;;;;;;;;;26.50;77.10;;;;;;5069976;28;19913;-84
2023/08/21 07:56:59;;;;;;;;;;;27.30;77.00;;;;;;5088087;28;19916;-82
2023/08/21 07:59:25;;;;;;;;;;;27.80;76.70;;;;;;5069459;28;19912;-79
2023/08/21 08:01:50;;;;;;;;;;;28.10;76.40;;;;;;5087971;28;19939;-80
2023/08/21 08:04:16;;;;;;;;;;;28.50;76.60;;;;;;5069872;28;19916;-81
2023/08/21 08:06:42;;;;;;;;;;;29.00;76.70;;;;;;5087831;28;19908;-81
2023/08/21 08:09:07;;;;;;;;;;;29.30;76.50;;;;;;5087907;28;20023;-83
2023/08/21 08:11:33;;;;;;;;;;;29.50;76.30;;;;;;5069942;28;20385;-82
2023/08/21 08:13:59;;;;;;;;;;;29.50;76.40;;;;;;5088116;28;20297;-80
2023/08/21 08:16:24;;;;;;;;;;;29.80;77.00;;;;;;5087782;28;19912;-79
2023/08/21 08:18:50;;;;;;;;;;;30.00;76.80;;;;;;5069051;28;20023;-79
2023/08/21 08:21:16;;;;;;;;;;;30.10;76.80;;;;;;5087304;28;19977;-80
2023/08/21 08:23:41;;;;;;;;;;;30.30;76.90;;;;;;5086196;28;20361;-79
2023/08/21 08:26:08;;;;;;;;;;;30.40;77.00;;;;;;5087510;28;19923;-82
2023/08/21 08:28:34;;;;;;;;;;;30.60;77.40;;;;;;5087437;28;19915;-80
2023/08/21 08:31:00;;;;;;;;;;;30.60;76.80;;;;;;5087442;28;19916;-81
2023/08/21 08:33:26;;;;;;;;;;;30.30;77.00;;;;;;5087229;28;19919;-78
2023/08/21 08:35:51;;;;;;;;;;;30.40;77.70;;;;;;5087327;28;19916;-79
2023/08/21 08:38:17;;;;;;;;;;;30.40;77.20;;;;;;5087432;28;19912;-80
2023/08/21 08:40:44;;;;;;;;;;;29.80;76.90;;;;;;5086027;28;19969;-79
2023/08/21 08:43:11;;;;;;;;;;;29.60;77.70;;;;;;5087970;28;19920;-79
2023/08/21 08:45:36;;;;;;;;;;;29.30;77.50;;;;;;5087313;28;19912;-78
2023/08/21 08:48:03;;;;;;;;;;;29.40;78.60;;;;;;5085951;28;20029;-79
2023/08/21 08:50:30;;;;;;;;;;;29.90;78.70;;;;;;5088727;28;19912;-80
2023/08/21 08:52:56;;;;;;;;;;;30.30;78.70;;;;;;5089683;28;19912;-77
2023/08/21 08:55:22;;;;;;;;;;;30.60;78.40;;;;;;5077114;28;19913;-79
2023/08/21 08:57:48;;;;;;;;;;;30.30;77.20;;;;;;5093458;28;20306;-80
2023/08/21 09:00:13;;;;;;;;;;;29.70;77.60;;;;;;5091850;28;19915;-79
2023/08/21 09:02:39;;;;;;;;;;;29.80;78.20;;;;;;5094030;28;20113;-80
2023/08/21 09:05:06;;;;;;;;;;;30.00;78.70;;;;;;5080372;28;19931;-80
2023/08/21 09:07:32;;;;;;;;;;;30.20;78.50;;;;;;5086844;28;19919;-79
2023/08/21 09:09:57;;;;;;;;;;;30.50;78.80;;;;;;5072474;28;20002;-80
2023/08/21 09:12:23;;;;;;;;;;;30.80;78.90;;;;;;5088865;28;19946;-79
2023/08/21 09:14:48;;;;;;;;;;;31.10;78.80;;;;;;5070647;28;19912;-80
2023/08/21 09:17:15;;;;;;;;;;;31.40;78.80;;;;;;5089313;28;19988;-80
2023/08/21 09:19:40;;;;;;;;;;;31.70;78.60;;;;;;5055357;28;19945;-80
2023/08/21 09:22:09;;;;;;;;;;;31.90;78.50;;;;;;5092832;28;19920;-81
2023/08/21 09:24:35;;;;;;;;;;;32.00;78.40;;;;;;5104358;28;19930;-80
2023/08/21 09:27:01;;;;;;;;;;;32.00;78.80;;;;;;5082404;28;19916;-80
2023/08/21 09:29:27;;;;;;;;;;;31.70;77.50;;;;;;5073566;28;19920;-79
2023/08/21 09:31:55;;;;;;;;;;;31.10;77.90;;;;;;5092168;28;20241;-79
2023/08/21 09:34:21;;;;;;;;;;;30.90;78.30;;;;;;5092663;28;19912;-80
2023/08/21 09:36:53;;;;;;;;;;;30.60;78.40;;;;;;5072608;28;20038;-80
2023/08/21 09:39:19;;;;;;;;;;;30.20;78.10;;;;;;5074907;28;19919;-81
2023/08/21 09:41:54;;;;;;;;;;;30.50;79.50;;;;;;5092825;28;19916;-81
2023/08/21 09:44:20;;;;;;;;;;;31.00;79.30;;;;;;5094931;28;19930;-80
2023/08/21 09:46:48;;;;;;;;;;;31.00;78.50;;;;;;5093190;28;19912;-81
2023/08/21 09:49:14;;;;;;;;;;;31.30;79.00;;;;;;5085837;28;19908;-80
2023/08/21 09:51:40;;;;;;;;;;;31.70;78.90;;;;;;5093199;28;19922;-80
2023/08/21 09:54:06;;;;;;;;;;;32.30;79.10;;;;;;5071122;28;20015;-80
2023/08/21 09:56:32;;;;;;;;;;;32.90;79.00;;;;;;5074365;28;19912;-81
2023/08/21 09:58:57;;;;;;;;;;;33.40;79.00;;;;;;5092157;28;19939;-80
2023/08/21 10:01:24;;;;;;;;;;;33.70;78.80;;;;;;5056417;28;20024;-80
2023/08/21 10:03:51;;;;;;;;;;;34.00;78.50;;;;;;5056475;28;19951;-79
2023/08/21 10:06:20;;;;;;;;;;;34.30;78.90;;;;;;5058587;28;20245;-79
2023/08/21 10:08:47;;;;;;;;;;;34.60;78.60;;;;;;5071608;28;20007;-82
2023/08/21 10:11:12;;;;;;;;;;;34.70;78.30;;;;;;5070637;28;20331;-79
2023/08/21 10:13:38;;;;;;;;;;;34.80;79.00;;;;;;5053515;28;19913;-74
2023/08/21 10:16:05;;;;;;;;;;;34.90;78.40;;;;;;5071415;28;19931;-81
2023/08/21 10:18:32;;;;;;;;;;;34.30;77.50;;;;;;5071208;28;19909;-79
2023/08/21 10:21:10;;;;;;;;;;;33.90;78.40;;;;;;5070751;28;20003;-76
2023/08/21 10:23:36;;;;;;;;;;;33.40;78.40;;;;;;5071430;28;19919;-80
2023/08/21 10:26:05;;;;;;;;;;;33.00;78.40;;;;;;5071558;28;20352;-81
2023/08/21 10:28:43;;;;;;;;;;;32.20;77.60;;;;;;5070039;28;19938;-76
2023/08/21 10:31:28;;;;;;;;;;;31.60;78.30;;;;;;5051402;28;19915;-83
2023/08/21 10:33:54;;;;;;;;;;;31.60;79.50;;;;;;5071171;28;20046;-80
2023/08/21 10:36:38;;;;;;;;;;;31.60;79.40;;;;;;5070806;28;19957;-75
2023/08/21 10:39:12;;;;;;;;;;;31.80;79.30;;;;;;5071482;28;19912;-74
2023/08/21 10:41:37;;;;;;;;;;;32.00;78.50;;;;;;5071474;28;20497;-79
2023/08/21 10:44:05;;;;;;;;;;;31.40;77.80;;;;;;5070162;28;19991;-81
2023/08/21 10:46:49;;;;;;;;;;;30.90;78.20;;;;;;5088338;28;19908;-80
2023/08/21 10:49:15;;;;;;;;;;;30.30;78.00;;;;;;5072923;28;19949;-80
2023/08/21 10:51:41;;;;;;;;;;;29.60;77.90;;;;;;5090869;28;19923;-79
2023/08/21 10:54:13;;;;;;;;;;;29.40;79.00;;;;;;5073153;28;19919;-80
2023/08/21 10:56:39;;;;;;;;;;;30.20;80.50;;;;;;5090761;28;19908;-81
2023/08/21 10:59:04;;;;;;;;;;;31.60;81.10;;;;;;5093854;28;20085;-80
2023/08/21 11:01:45;;;;;;;;;;;32.50;80.00;;;;;;5095136;28;19912;-79
2023/08/21 11:04:14;;;;;;;;;;;32.90;79.20;;;;;;5091597;28;19908;-80
2023/08/21 11:06:40;;;;;;;;;;;33.30;79.20;;;;;;5074811;28;19916;-80
2023/08/21 11:09:12;;;;;;;;;;;33.20;78.20;;;;;;5090497;28;20044;-82
2023/08/21 11:11:37;;;;;;;;;;;32.60;77.40;;;;;;5092026;28;20534;-81
2023/08/21 11:14:03;;;;;;;;;;;31.70;77.20;;;;;;5092107;28;19912;-82
2023/08/21 11:16:28;;;;;;;;;;;31.50;78.80;;;;;;5091166;28;19916;-83
2023/08/21 11:18:54;;;;;;;;;;;31.80;79.00;;;;;;5090369;28;19919;-82
2023/08/21 11:21:22;;;;;;;;;;;31.80;78.90;;;;;;5090780;28;19966;-77
2023/08/21 11:23:50;;;;;;;;;;;32.00;78.70;;;;;;5090124;28;21337;-81
2023/08/21 11:26:16;;;;;;;;;;;31.90;78.70;;;;;;5090397;28;20015;-81
2023/08/21 11:28:41;;;;;;;;;;;32.10;78.90;;;;;;5090428;28;19912;-82
2023/08/21 11:31:08;;;;;;;;;;;32.40;79.10;;;;;;5090514;28;19940;-82
2023/08/21 11:33:33;;;;;;;;;;;32.20;78.00;;;;;;5090383;28;19912;-80
2023/08/21 11:36:00;;;;;;;;;;;31.70;78.20;;;;;;5090694;28;20154;-79
2023/08/21 11:38:26;;;;;;;;;;;31.50;78.20;;;;;;5090449;28;19908;-78
2023/08/21 11:41:00;;;;;;;;;;;31.60;78.80;;;;;;5090446;28;20077;-80
2023/08/21 11:43:45;;;;;;;;;;;31.80;79.30;;;;;;5090087;28;19965;-82
2023/08/21 11:46:11;;;;;;;;;;;32.00;78.80;;;;;;5071938;28;19908;-83
2023/08/21 11:48:38;;;;;;;;;;;31.80;78.60;;;;;;5072299;28;19934;-82
2023/08/21 11:51:03;;;;;;;;;;;32.20;79.50;;;;;;5090465;28;19959;-82
2023/08/21 11:53:30;;;;;;;;;;;32.40;79.10;;;;;;5090758;28;19916;-74
2023/08/21 11:55:56;;;;;;;;;;;32.60;78.70;;;;;;5090019;28;19912;-82
2023/08/21 11:58:22;;;;;;;;;;;32.70;78.90;;;;;;5073249;28;19960;-84
2023/08/21 12:00:47;;;;;;;;;;;32.90;78.90;;;;;;5074620;28;19919;-82
2023/08/21 12:03:17;;;;;;;;;;;33.00;78.80;;;;;;5090835;28;19916;-85
2023/08/21 12:05:46;;;;;;;;;;;32.80;78.40;;;;;;5090838;28;19943;-85
2023/08/21 12:08:11;;;;;;;;;;;32.40;78.30;;;;;;5072033;28;19915;-82
2023/08/21 12:10:37;;;;;;;;;;;31.90;78.10;;;;;;5054867;28;20013;-82
2023/08/21 12:13:03;;;;;;;;;;;31.40;78.10;;;;;;5089648;28;20323;-80
2023/08/21 12:15:28;;;;;;;;;;;31.20;78.50;;;;;;5090369;28;19966;-84
2023/08/21 12:17:54;;;;;;;;;;;30.90;78.50;;;;;;5071877;28;20288;-81
2023/08/21 12:20:20;;;;;;;;;;;30.70;78.30;;;;;;5089308;28;19936;-83
2023/08/21 12:22:46;;;;;;;;;;;30.30;78.50;;;;;;5089122;28;19916;-83
2023/08/21 12:25:13;;;;;;;;;;;30.50;79.40;;;;;;5071639;28;19915;-82
2023/08/21 12:27:38;;;;;;;;;;;30.70;78.80;;;;;;5071698;28;19912;-83
2023/08/21 12:30:05;;;;;;;;;;;30.30;78.30;;;;;;5072024;28;19916;-80
2023/08/21 12:32:30;;;;;;;;;;;30.30;79.20;;;;;;5089507;28;20268;-78
2023/08/21 12:34:56;;;;;;;;;;;30.40;79.00;;;;;;5090755;28;19923;-80
2023/08/21 12:37:22;;;;;;;;;;;30.80;79.50;;;;;;5075226;28;20334;-81
2023/08/21 12:39:47;;;;;;;;;;;30.80;78.50;;;;;;5094293;28;19915;-81
2023/08/21 12:42:13;;;;;;;;;;;30.30;77.80;;;;;;5096881;28;19991;-82
2023/08/21 12:44:39;;;;;;;;;;;30.10;78.40;;;;;;5078944;28;20364;-81
2023/08/21 12:47:04;;;;;;;;;;;29.80;77.80;;;;;;5059069;28;19912;-82
2023/08/21 12:49:30;;;;;;;;;;;29.50;78.40;;;;;;5093683;28;19912;-81
2023/08/21 12:51:55;;;;;;;;;;;29.30;78.10;;;;;;5074946;28;20020;-80
2023/08/21 12:54:21;;;;;;;;;;;29.30;78.60;;;;;;5074792;28;20326;-79
2023/08/21 12:56:46;;;;;;;;;;;29.40;78.30;;;;;;5073899;28;19923;-78
2023/08/21 12:59:13;;;;;;;;;;;29.10;77.80;;;;;;5074391;28;19912;-78
2023/08/21 13:01:39;;;;;;;;;;;28.80;77.90;;;;;;5092364;28;20317;-81
2023/08/21 13:04:04;;;;;;;;;;;28.90;78.70;;;;;;5093065;28;19912;-82
2023/08/21 13:06:30;;;;;;;;;;;29.20;79.10;;;;;;5074227;28;19999;-80
2023/08/21 13:08:56;;;;;;;;;;;29.50;78.60;;;;;;5057824;28;19964;-79
2023/08/21 13:11:21;;;;;;;;;;;29.50;78.40;;;;;;5075029;28;19916;-81
2023/08/21 13:13:47;;;;;;;;;;;29.50;78.30;;;;;;5074201;28;19961;-83
2023/08/21 13:16:13;;;;;;;;;;;29.50;78.40;;;;;;5092432;28;20329;-81
2023/08/21 13:18:39;;;;;;;;;;;29.30;77.80;;;;;;5057588;28;19912;-79
2023/08/21 13:21:04;;;;;;;;;;;29.30;78.10;;;;;;5093361;28;19984;-79
2023/08/21 13:23:30;;;;;;;;;;;29.10;77.50;;;;;;5074705;28;19962;-81
2023/08/21 13:25:57;;;;;;;;;;;29.10;78.10;;;;;;5074830;28;20371;-81
2023/08/21 13:28:23;;;;;;;;;;;29.30;78.50;;;;;;5074088;28;19914;-82
2023/08/21 13:30:49;;;;;;;;;;;29.60;78.50;;;;;;5092247;28;19912;-83
2023/08/21 13:33:14;;;;;;;;;;;29.80;78.30;;;;;;5091867;28;19912;-83
2023/08/21 13:35:40;;;;;;;;;;;29.70;77.80;;;;;;5091505;28;19935;-80
2023/08/21 13:38:05;;;;;;;;;;;29.50;77.70;;;;;;5073104;28;19920;-82
2023/08/21 13:40:31;;;;;;;;;;;29.50;77.80;;;;;;5056870;28;19982;-81
2023/08/21 13:42:57;;;;;;;;;;;29.40;77.80;;;;;;5073809;28;19994;-68
2023/08/21 13:45:23;;;;;;;;;;;29.40;77.40;;;;;;5089537;28;19912;-80
2023/08/21 13:47:49;;;;;;;;;;;29.10;77.00;;;;;;5088987;28;20387;-73
2023/08/21 13:50:15;;;;;;;;;;;29.00;77.30;;;;;;5085062;28;19993;-79
2023/08/21 13:52:41;;;;;;;;;;;28.80;77.20;;;;;;5073708;28;20346;-81
2023/08/21 13:55:07;;;;;;;;;;;28.70;77.10;;;;;;5074046;28;19959;-82
2023/08/21 13:57:33;;;;;;;;;;;28.40;76.80;;;;;;5074139;28;19919;-80
2023/08/21 13:59:59;;;;;;;;;;;28.20;77.10;;;;;;5091373;28;20336;-77
2023/08/21 14:02:24;;;;;;;;;;;28.10;77.10;;;;;;5090359;28;19966;-81
2023/08/21 14:04:50;;;;;;;;;;;27.90;76.80;;;;;;5092366;28;20318;-78
2023/08/21 14:07:15;;;;;;;;;;;27.60;76.90;;;;;;5091344;28;19916;-80
2023/08/21 14:09:41;;;;;;;;;;;27.50;77.20;;;;;;5091852;28;19950;-81
2023/08/21 14:12:07;;;;;;;;;;;27.30;77.70;;;;;;5091549;28;19916;-80